Time;durP1;ratioP1;P1;durP2;ratioP2;P2;SDS_P1;SDS_P2;PMS_P1;PMS_P2;Temp;Humidity;BMP_temperature;BMP_pressure;BME280_temperature;BME280_humidity;BME280_pressure;Samples;Min_cycle;Max_cycle;Signal;HPM_P1;HPM_P2
2023/10/20 00:01:12;;;;;;;4.28;1.02;;;17.00;99.90;;;;;;5034553;28;20040;-85
2023/10/20 00:03:38;;;;;;;0.00;0.00;;;17.00;99.90;;;;;;5033572;28;20124;-84
2023/10/20 00:06:04;;;;;;;0.47;0.47;;;17.00;99.90;;;;;;5035070;28;20049;-83
2023/10/20 00:08:31;;;;;;;0.57;0.57;;;16.90;99.90;;;;;;5034203;28;20038;-82
2023/10/20 00:11:04;;;;;;;0.00;0.00;;;16.90;99.90;;;;;;5034816;28;20021;-83
2023/10/20 00:13:30;;;;;;;0.08;0.08;;;16.90;99.90;;;;;;5034819;28;20124;-84
2023/10/20 00:15:56;;;;;;;0.00;0.00;;;17.00;99.90;;;;;;5034584;28;20021;-84
2023/10/20 00:18:22;;;;;;;0.13;0.13;;;17.00;99.90;;;;;;5033028;28;20021;-84
2023/10/20 00:20:48;;;;;;;0.22;0.22;;;16.90;99.90;;;;;;5034412;28;20107;-84
2023/10/20 00:23:17;;;;;;;0.65;0.40;;;17.00;99.90;;;;;;5033126;28;20029;-84
2023/10/20 00:25:43;;;;;;;0.15;0.15;;;16.90;99.90;;;;;;5033203;28;20437;-84
2023/10/20 00:28:09;;;;;;;0.00;0.00;;;17.00;99.90;;;;;;5034671;28;20049;-82
2023/10/20 00:30:39;;;;;;;0.00;0.00;;;17.00;99.90;;;;;;5034405;28;20037;-77
2023/10/20 00:33:05;;;;;;;0.10;0.10;;;17.00;99.90;;;;;;5034475;28;20477;-77
2023/10/20 00:35:31;;;;;;;0.00;0.00;;;17.00;99.90;;;;;;5034313;28;20034;-78
2023/10/20 00:37:58;;;;;;;0.05;0.05;;;17.00;99.90;;;;;;5034107;28;20033;-80
2023/10/20 00:40:24;;;;;;;0.75;0.75;;;17.00;99.90;;;;;;5034119;28;20063;-75
2023/10/20 00:42:50;;;;;;;0.17;0.17;;;17.00;99.90;;;;;;5032598;28;20112;-77
2023/10/20 00:45:16;;;;;;;0.03;0.03;;;17.00;99.90;;;;;;5033065;28;20121;-76
2023/10/20 00:47:44;;;;;;;0.05;0.05;;;17.00;99.90;;;;;;5027676;28;20026;-75
2023/10/20 00:50:13;;;;;;;0.00;0.00;;;17.10;99.90;;;;;;5032648;28;20554;-78
2023/10/20 00:52:49;;;;;;;3.58;3.25;;;17.10;99.90;;;;;;5032459;28;20116;-75
2023/10/20 00:55:16;;;;;;;0.20;0.10;;;17.20;99.90;;;;;;5031178;28;20036;-78
2023/10/20 00:57:45;;;;;;;0.10;0.10;;;17.20;99.90;;;;;;5025743;28;20027;-75
2023/10/20 01:00:13;;;;;;;0.10;0.10;;;17.30;99.90;;;;;;5033797;28;20034;-75
2023/10/20 01:02:39;;;;;;;0.00;0.00;;;17.20;99.90;;;;;;5025150;28;20057;-78
2023/10/20 01:05:05;;;;;;;0.00;0.00;;;17.10;99.90;;;;;;5013589;28;20061;-78
2023/10/20 01:07:32;;;;;;;1.25;0.45;;;17.10;99.90;;;;;;5033437;28;20021;-80
2023/10/20 01:10:09;;;;;;;0.00;0.00;;;17.10;99.90;;;;;;5033724;28;20029;-76
2023/10/20 01:12:35;;;;;;;0.25;0.25;;;17.20;99.90;;;;;;5033677;28;20485;-82
2023/10/20 01:15:04;;;;;;;0.00;0.00;;;17.10;99.90;;;;;;5033433;28;20509;-77
2023/10/20 01:17:30;;;;;;;0.00;0.00;;;17.20;99.90;;;;;;5033862;28;20021;-76
2023/10/20 01:20:00;;;;;;;0.00;0.00;;;17.20;99.90;;;;;;5033337;28;20484;-75
2023/10/20 01:22:26;;;;;;;0.00;0.00;;;17.20;99.90;;;;;;5033504;28;20095;-80
2023/10/20 01:24:52;;;;;;;0.15;0.10;;;17.30;99.90;;;;;;5032118;28;20485;-81
2023/10/20 01:27:19;;;;;;;0.00;0.00;;;17.40;99.90;;;;;;5033401;28;20029;-80
2023/10/20 01:29:45;;;;;;;0.00;0.00;;;17.30;99.90;;;;;;5031298;28;20033;-77
2023/10/20 01:32:11;;;;;;;0.10;0.10;;;17.30;99.90;;;;;;5031914;28;20779;-81
2023/10/20 01:34:37;;;;;;;4.53;2.42;;;17.20;99.90;;;;;;5031954;28;20108;-80
2023/10/20 01:37:02;;;;;;;0.00;0.00;;;17.00;99.90;;;;;;5033043;28;20036;-75
2023/10/20 01:39:30;;;;;;;0.00;0.00;;;17.00;99.90;;;;;;5032113;28;20126;-76
2023/10/20 01:41:56;;;;;;;0.08;0.08;;;17.10;99.90;;;;;;5031701;28;20087;-80
2023/10/20 01:44:22;;;;;;;0.00;0.00;;;17.10;99.90;;;;;;5033397;28;20481;-77
2023/10/20 01:46:51;;;;;;;0.35;0.35;;;17.10;99.90;;;;;;5033011;28;20385;-79
2023/10/20 01:49:20;;;;;;;0.38;0.38;;;17.10;99.90;;;;;;5019654;28;20067;-85
2023/10/20 01:51:46;;;;;;;0.00;0.00;;;17.00;99.90;;;;;;5033302;28;20475;-84
2023/10/20 01:54:12;;;;;;;0.00;0.00;;;17.10;99.90;;;;;;5032951;28;20037;-84
2023/10/20 01:56:37;;;;;;;0.65;0.47;;;17.00;99.90;;;;;;5031905;28;20018;-85
2023/10/20 01:59:03;;;;;;;0.00;0.00;;;17.00;99.90;;;;;;5031576;28;20021;-84
2023/10/20 02:01:30;;;;;;;0.45;0.45;;;17.00;99.90;;;;;;5015361;28;20041;-75
2023/10/20 02:03:55;;;;;;;0.10;0.10;;;16.90;99.90;;;;;;5031011;28;20037;-77
2023/10/20 02:06:23;;;;;;;0.15;0.15;;;16.90;99.90;;;;;;5031621;28;20021;-75
2023/10/20 02:08:49;;;;;;;0.00;0.00;;;16.90;99.90;;;;;;5015135;28;20025;-73
2023/10/20 02:11:15;;;;;;;1.60;0.80;;;16.90;99.90;;;;;;5032093;28;20040;-83
2023/10/20 02:13:44;;;;;;;0.63;0.63;;;16.80;99.90;;;;;;5032509;28;20037;-83
2023/10/20 02:16:10;;;;;;;0.57;0.57;;;16.80;99.90;;;;;;5031881;28;20100;-84
2023/10/20 02:18:37;;;;;;;0.65;0.52;;;16.80;99.90;;;;;;5031131;28;20030;-82
2023/10/20 02:21:03;;;;;;;0.20;0.20;;;16.90;99.90;;;;;;5031200;28;20474;-83
2023/10/20 02:23:38;;;;;;;0.80;0.65;;;17.00;99.90;;;;;;5031693;28;20049;-83
2023/10/20 02:26:06;;;;;;;0.50;0.28;;;16.90;99.90;;;;;;5032537;28;20057;-84
2023/10/20 02:28:36;;;;;;;0.10;0.10;;;16.80;99.90;;;;;;5031495;28;20040;-83
2023/10/20 02:31:11;;;;;;;0.47;0.47;;;17.00;99.90;;;;;;5032551;28;20029;-83
2023/10/20 02:33:38;;;;;;;2.78;1.05;;;16.90;99.90;;;;;;5030926;28;20497;-84
2023/10/20 02:36:04;;;;;;;1.00;0.73;;;17.00;99.90;;;;;;5031543;28;20032;-83
2023/10/20 02:38:30;;;;;;;0.40;0.40;;;17.00;99.90;;;;;;5031046;28;20029;-83
2023/10/20 02:40:56;;;;;;;0.00;0.00;;;16.90;99.90;;;;;;5034254;28;20033;-83
2023/10/20 02:43:23;;;;;;;0.00;0.00;;;16.90;99.90;;;;;;5034774;28;20018;-83
2023/10/20 02:45:49;;;;;;;0.10;0.10;;;17.10;99.90;;;;;;5035177;28;20033;-83
2023/10/20 02:48:15;;;;;;;0.15;0.15;;;17.00;99.90;;;;;;5027174;28;20033;-81
2023/10/20 02:50:41;;;;;;;3.25;0.45;;;17.00;99.90;;;;;;5015877;28;20492;-83
2023/10/20 02:53:08;;;;;;;0.00;0.00;;;17.00;99.90;;;;;;5030011;28;20033;-83
2023/10/20 02:55:33;;;;;;;0.13;0.13;;;17.00;99.90;;;;;;5034799;28;20026;-83
2023/10/20 02:58:03;;;;;;;0.00;0.00;;;17.00;99.90;;;;;;5035083;28;20091;-83
2023/10/20 03:00:29;;;;;;;0.00;0.00;;;17.00;99.90;;;;;;5034757;28;20501;-84
2023/10/20 03:02:54;;;;;;;0.00;0.00;;;17.10;99.90;;;;;;5035865;28;20025;-83
2023/10/20 03:05:21;;;;;;;0.00;0.00;;;17.00;99.90;;;;;;5034642;28;20142;-83
2023/10/20 03:07:47;;;;;;;0.65;0.65;;;17.10;99.90;;;;;;5034823;28;20026;-83
2023/10/20 03:10:13;;;;;;;0.00;0.00;;;16.90;99.90;;;;;;5036143;28;20089;-83
2023/10/20 03:12:39;;;;;;;0.00;0.00;;;16.90;99.90;;;;;;5034650;28;20525;-83
2023/10/20 03:15:07;;;;;;;0.00;0.00;;;16.90;99.90;;;;;;5034721;28;20044;-83
2023/10/20 03:17:33;;;;;;;0.00;0.00;;;17.00;99.90;;;;;;5035828;28;20482;-81
2023/10/20 03:19:59;;;;;;;0.30;0.30;;;16.90;99.90;;;;;;5035836;28;20101;-84
2023/10/20 03:22:25;;;;;;;0.20;0.20;;;17.00;99.90;;;;;;5036317;28;20033;-84
2023/10/20 03:24:54;;;;;;;1.90;1.40;;;17.00;99.90;;;;;;5034375;28;20043;-83
2023/10/20 03:27:19;;;;;;;0.10;0.10;;;17.00;99.90;;;;;;5034887;28;20032;-82
2023/10/20 03:29:45;;;;;;;0.10;0.10;;;17.10;99.90;;;;;;5035817;28;20416;-83
2023/10/20 03:32:11;;;;;;;1.55;0.57;;;17.10;99.90;;;;;;5035161;28;20036;-80
2023/10/20 03:34:37;;;;;;;1.90;0.45;;;17.10;99.90;;;;;;5034015;28;20481;-81
2023/10/20 03:37:03;;;;;;;0.32;0.32;;;17.20;99.90;;;;;;5035827;28;20021;-82
2023/10/20 03:39:33;;;;;;;0.10;0.10;;;17.10;99.90;;;;;;5035305;28;20478;-78
2023/10/20 03:41:59;;;;;;;0.15;0.15;;;17.00;99.90;;;;;;5035284;28;20030;-81
2023/10/20 03:44:24;;;;;;;0.00;0.00;;;17.00;99.90;;;;;;5034688;28;20033;-83
2023/10/20 03:46:56;;;;;;;0.00;0.00;;;16.90;99.90;;;;;;5034282;28;20021;-81
2023/10/20 03:49:22;;;;;;;4.18;0.68;;;16.90;99.90;;;;;;5026983;28;20417;-83
2023/10/20 03:51:51;;;;;;;0.15;0.10;;;17.00;99.90;;;;;;5033420;28;20017;-77
2023/10/20 03:54:18;;;;;;;0.08;0.08;;;17.10;99.90;;;;;;5035260;28;20104;-80
2023/10/20 03:56:45;;;;;;;1.55;1.30;;;17.00;99.90;;;;;;5034914;28;20036;-82
2023/10/20 03:59:13;;;;;;;1.08;0.98;;;17.10;99.90;;;;;;5035965;28;20033;-82
2023/10/20 04:01:39;;;;;;;0.70;0.70;;;17.00;99.90;;;;;;5034851;28;20028;-81
2023/10/20 04:04:11;;;;;;;0.50;0.50;;;17.00;99.90;;;;;;5034772;28;20041;-82
2023/10/20 04:06:37;;;;;;;0.38;0.38;;;16.90;99.90;;;;;;5033706;28;20095;-83
2023/10/20 04:09:10;;;;;;;1.02;0.73;;;16.90;99.90;;;;;;5034632;28;20026;-80
2023/10/20 04:11:37;;;;;;;0.08;0.08;;;16.90;99.90;;;;;;5034920;28;20029;-82
2023/10/20 04:14:06;;;;;;;0.00;0.00;;;17.00;99.90;;;;;;5034422;28;20382;-83
2023/10/20 04:16:39;;;;;;;0.88;0.40;;;17.00;99.90;;;;;;5034698;28;20063;-82
2023/10/20 04:19:09;;;;;;;0.60;0.60;;;16.90;99.90;;;;;;5034639;28;20478;-77
2023/10/20 04:21:38;;;;;;;0.35;0.35;;;17.00;99.90;;;;;;5034565;28;20486;-83
2023/10/20 04:24:07;;;;;;;0.10;0.10;;;16.90;99.90;;;;;;5033601;28;20037;-83
2023/10/20 04:26:35;;;;;;;0.10;0.10;;;16.90;99.90;;;;;;5034364;28;20036;-82
2023/10/20 04:51:18;;;;;;;0.65;0.38;;;17.20;99.90;;;;;;4944564;29;20043;-75
2023/10/20 04:54:04;;;;;;;;;;;17.10;99.90;;;;;;5011894;28;20032;-73
2023/10/20 04:56:41;;;;;;;0.90;0.90;;;17.20;99.90;;;;;;5014161;28;19919;-74
2023/10/20 04:59:10;;;;;;;0.30;0.30;;;17.30;99.90;;;;;;5012773;28;20450;-83
2023/10/20 05:06:58;;;;;;;0.60;0.60;;;17.10;99.90;;;;;;5013608;28;20026;-84
2023/10/20 05:09:25;;;;;;;0.57;0.57;;;17.00;99.90;;;;;;5012657;28;20057;-83
2023/10/20 05:11:53;;;;;;;0.10;0.10;;;17.00;99.90;;;;;;5022966;28;20043;-83
2023/10/20 05:14:19;;;;;;;0.77;0.77;;;17.10;99.90;;;;;;5034292;28;20057;-83
2023/10/20 05:16:44;;;;;;;0.52;0.40;;;17.10;99.90;;;;;;5034922;28;20044;-83
2023/10/20 05:19:10;;;;;;;0.38;0.38;;;17.00;99.90;;;;;;5034514;28;20381;-78
2023/10/20 05:21:38;;;;;;;0.15;0.15;;;17.00;99.90;;;;;;5033356;28;20036;-84
2023/10/20 05:24:04;;;;;;;0.80;0.80;;;17.00;99.90;;;;;;5033545;28;20033;-83
2023/10/20 05:26:31;;;;;;;0.55;0.45;;;16.90;99.90;;;;;;5033101;28;20029;-84
2023/10/20 05:28:58;;;;;;;0.88;0.77;;;16.90;99.90;;;;;;5027111;28;20053;-77
2023/10/20 05:31:25;;;;;;;0.57;0.50;;;17.00;99.90;;;;;;5013011;28;20478;-83
2023/10/20 05:33:51;;;;;;;0.00;0.00;;;17.00;99.90;;;;;;5012573;28;20026;-81
2023/10/20 05:36:17;;;;;;;0.30;0.30;;;17.00;99.90;;;;;;5012482;28;20021;-78
2023/10/20 05:38:43;;;;;;;0.00;0.00;;;17.00;99.90;;;;;;5012180;28;20577;-81
2023/10/20 05:41:08;;;;;;;0.00;0.00;;;17.00;99.90;;;;;;5012323;28;20037;-78
2023/10/20 05:43:34;;;;;;;0.15;0.15;;;17.00;99.90;;;;;;5011689;28;20061;-81
2023/10/20 05:46:00;;;;;;;0.10;0.10;;;17.00;99.90;;;;;;5012506;28;20030;-80
2023/10/20 05:48:26;;;;;;;1.17;1.10;;;16.90;99.90;;;;;;5011966;28;20109;-82
2023/10/20 05:50:58;;;;;;;0.45;0.10;;;16.90;99.90;;;;;;5012851;28;20029;-80
2023/10/20 05:53:27;;;;;;;0.10;0.10;;;17.00;99.90;;;;;;5012053;28;20471;-74
2023/10/20 05:55:53;;;;;;;0.00;0.00;;;17.00;99.90;;;;;;5011196;28;20030;-77
2023/10/20 05:58:19;;;;;;;1.25;1.25;;;17.10;99.90;;;;;;5011974;28;20081;-75
2023/10/20 06:00:45;;;;;;;0.55;0.55;;;17.10;99.90;;;;;;5009857;28;20021;-75
2023/10/20 06:03:11;;;;;;;0.10;0.10;;;17.00;99.90;;;;;;5010708;28;20379;-72
2023/10/20 06:05:38;;;;;;;0.20;0.20;;;17.10;99.90;;;;;;5008308;28;20229;-72
2023/10/20 06:08:04;;;;;;;0.30;0.30;;;17.00;99.90;;;;;;5007512;28;20030;-72
2023/10/20 06:10:30;;;;;;;0.10;0.10;;;17.10;99.90;;;;;;5008226;28;20045;-72
2023/10/20 06:12:57;;;;;;;0.00;0.00;;;17.10;99.90;;;;;;5011756;28;20056;-72
2023/10/20 06:15:23;;;;;;;0.00;0.00;;;17.10;99.90;;;;;;5006137;28;20022;-72
2023/10/20 06:17:50;;;;;;;0.95;0.95;;;17.10;99.90;;;;;;5007450;28;20510;-74
2023/10/20 06:20:16;;;;;;;0.90;0.52;;;17.20;99.90;;;;;;5009704;28;20029;-72
2023/10/20 06:22:42;;;;;;;1.10;1.10;;;17.20;99.90;;;;;;5009424;28;20033;-73
2023/10/20 06:25:15;;;;;;;1.98;1.55;;;17.20;99.90;;;;;;4995972;28;20387;-73
2023/10/20 06:27:42;;;;;;;0.03;0.03;;;17.10;99.90;;;;;;5010821;28;20022;-72
2023/10/20 06:30:21;;;;;;;0.10;0.10;;;17.10;99.90;;;;;;5003105;28;20042;-72
2023/10/20 06:33:16;;;;;;;0.40;0.40;;;17.10;99.90;;;;;;5005568;28;20133;-72
2023/10/20 06:35:52;;;;;;;0.20;0.20;;;17.10;99.90;;;;;;5011909;28;20478;-70
2023/10/20 06:39:12;;;;;;;2.80;1.48;;;17.20;99.90;;;;;;5008018;28;20487;-70
2023/10/20 06:41:08;;;;;;;0.82;0.38;;;17.10;99.90;;;;;;5006432;28;20104;-70
2023/10/20 06:43:34;;;;;;;0.57;0.57;;;17.20;99.90;;;;;;5005275;28;20574;-70
2023/10/20 06:46:00;;;;;;;0.10;0.10;;;17.20;99.90;;;;;;5008607;28;20022;-70
2023/10/20 06:48:29;;;;;;;0.00;0.00;;;17.20;99.90;;;;;;5010386;28;20037;-70
2023/10/20 06:50:56;;;;;;;0.17;0.17;;;17.30;99.90;;;;;;5009714;28;20045;-70
2023/10/20 06:53:22;;;;;;;0.77;0.75;;;17.30;99.90;;;;;;5009358;28;20101;-70
2023/10/20 06:55:48;;;;;;;0.20;0.15;;;17.30;99.90;;;;;;5005352;28;20113;-70
2023/10/20 06:58:18;;;;;;;0.00;0.00;;;17.30;99.90;;;;;;5008141;28;20490;-71
2023/10/20 07:00:47;;;;;;;0.00;0.00;;;17.40;99.90;;;;;;5007131;28;20030;-74
2023/10/20 07:03:14;;;;;;;0.10;0.10;;;17.40;99.90;;;;;;5006847;28;20026;-76
2023/10/20 07:05:40;;;;;;;0.00;0.00;;;17.40;99.90;;;;;;5007611;28;20053;-73
2023/10/20 07:08:07;;;;;;;0.00;0.00;;;17.40;99.90;;;;;;5011296;28;20040;-73
2023/10/20 07:10:37;;;;;;;0.00;0.00;;;17.50;99.90;;;;;;5004886;28;20026;-76
2023/10/20 07:13:07;;;;;;;0.55;0.52;;;17.50;99.90;;;;;;5019607;28;20064;-73
2023/10/20 07:15:35;;;;;;;3.90;0.85;;;17.50;99.90;;;;;;5010228;28;20034;-75
2023/10/20 07:18:02;;;;;;;0.00;0.00;;;17.40;99.90;;;;;;5010242;28;20483;-72
2023/10/20 07:20:30;;;;;;;0.13;0.13;;;17.40;99.90;;;;;;5005401;28;20037;-76
2023/10/20 07:22:56;;;;;;;0.45;0.45;;;17.40;99.90;;;;;;5005409;28;20044;-71
2023/10/20 07:25:22;;;;;;;0.00;0.00;;;17.30;99.90;;;;;;5007021;28;20112;-72
2023/10/20 07:27:48;;;;;;;0.00;0.00;;;17.30;99.90;;;;;;5010857;28;20531;-74
2023/10/20 07:30:17;;;;;;;0.00;0.00;;;17.40;99.90;;;;;;5013014;28;20390;-71
2023/10/20 07:32:43;;;;;;;0.00;0.00;;;17.40;99.90;;;;;;5012110;28;20116;-72
2023/10/20 07:35:11;;;;;;;0.00;0.00;;;17.40;99.90;;;;;;5011749;28;20052;-71
2023/10/20 07:37:38;;;;;;;0.00;0.00;;;17.40;99.90;;;;;;5010259;28;20041;-72
2023/10/20 07:40:05;;;;;;;1.67;0.22;;;17.40;99.90;;;;;;5011802;28;20034;-72
2023/10/20 07:42:31;;;;;;;0.00;0.00;;;17.60;99.90;;;;;;5012073;28;20030;-73
2023/10/20 07:44:58;;;;;;;0.00;0.00;;;17.50;99.90;;;;;;5009665;28;20169;-72
2023/10/20 07:47:24;;;;;;;0.75;0.32;;;17.60;99.90;;;;;;5013382;28;20021;-72
2023/10/20 07:49:51;;;;;;;0.00;0.00;;;17.60;99.90;;;;;;5014595;28;20033;-72
2023/10/20 07:52:17;;;;;;;3.83;1.27;;;17.60;99.90;;;;;;5013953;28;20125;-71
2023/10/20 07:54:43;;;;;;;0.00;0.00;;;17.50;99.90;;;;;;5014412;28;20597;-73
2023/10/20 07:57:10;;;;;;;0.10;0.10;;;17.40;99.90;;;;;;5012722;28;20422;-70
2023/10/20 07:59:36;;;;;;;0.00;0.00;;;17.40;99.90;;;;;;4991414;28;20029;-72
2023/10/20 08:02:05;;;;;;;0.10;0.10;;;17.40;99.90;;;;;;5004898;28;20080;-73
2023/10/20 08:04:36;;;;;;;0.10;0.10;;;17.30;99.90;;;;;;5012939;28;20053;-73
2023/10/20 08:07:03;;;;;;;0.20;0.20;;;17.30;99.90;;;;;;5013754;28;20036;-73
2023/10/20 08:09:29;;;;;;;0.35;0.30;;;17.40;99.90;;;;;;4994758;28;20090;-70
2023/10/20 08:11:56;;;;;;;0.20;0.20;;;17.40;99.90;;;;;;5019310;28;20128;-69
2023/10/20 08:14:26;;;;;;;0.73;0.68;;;17.40;99.90;;;;;;5021620;28;20097;-70
2023/10/20 08:16:52;;;;;;;0.08;0.08;;;17.60;99.90;;;;;;5014067;28;20036;-70
2023/10/20 08:19:17;;;;;;;0.00;0.00;;;17.50;99.90;;;;;;5013940;28;20506;-69
2023/10/20 08:21:43;;;;;;;0.25;0.13;;;17.50;99.90;;;;;;5013121;28;20029;-69
2023/10/20 08:24:10;;;;;;;0.40;0.40;;;17.50;99.90;;;;;;5013446;28;20034;-70
2023/10/20 08:26:36;;;;;;;0.10;0.10;;;17.60;99.90;;;;;;5012247;28;20022;-70
2023/10/20 08:29:06;;;;;;;0.10;0.10;;;17.50;99.90;;;;;;5013745;28;20069;-70
2023/10/20 08:31:32;;;;;;;0.17;0.17;;;17.60;99.90;;;;;;5011452;28;20034;-70
2023/10/20 08:33:58;;;;;;;0.20;0.20;;;17.60;99.90;;;;;;5008116;28;20050;-70
2023/10/20 08:36:24;;;;;;;4.47;0.50;;;17.70;99.90;;;;;;5012818;28;20026;-69
2023/10/20 08:38:52;;;;;;;0.63;0.52;;;17.70;99.90;;;;;;5013281;28;20041;-69
2023/10/20 08:41:21;;;;;;;0.35;0.35;;;17.80;99.90;;;;;;5008754;28;20033;-70
2023/10/20 08:43:48;;;;;;;0.00;0.00;;;17.70;99.90;;;;;;5006164;28;20022;-70
2023/10/20 08:46:16;;;;;;;0.17;0.17;;;17.80;99.90;;;;;;5013295;28;20113;-70
2023/10/20 08:48:43;;;;;;;0.40;0.40;;;17.70;99.90;;;;;;5007497;28;20029;-70
2023/10/20 08:51:12;;;;;;;0.65;0.65;;;17.60;99.90;;;;;;5012118;28;20029;-70
2023/10/20 08:53:38;;;;;;;5.28;1.00;;;17.60;99.90;;;;;;5010448;28;20546;-71
2023/10/20 08:56:09;;;;;;;0.63;0.63;;;17.70;99.90;;;;;;5010234;28;20029;-71
2023/10/20 08:58:36;;;;;;;0.10;0.05;;;17.70;99.90;;;;;;5012984;28;20030;-70
2023/10/20 09:01:04;;;;;;;0.10;0.10;;;17.70;99.90;;;;;;5011517;28;20026;-70
2023/10/20 09:03:40;;;;;;;0.32;0.30;;;17.80;99.90;;;;;;5012351;28;20477;-70
2023/10/20 09:06:07;;;;;;;0.43;0.43;;;17.70;99.90;;;;;;5013456;28;20054;-70
2023/10/20 09:08:33;;;;;;;0.00;0.00;;;17.80;99.90;;;;;;5003590;28;20399;-70
2023/10/20 09:10:59;;;;;;;0.00;0.00;;;17.80;99.90;;;;;;5015919;28;20062;-70
2023/10/20 09:13:34;;;;;;;0.10;0.10;;;17.70;99.90;;;;;;5018426;28;20056;-70
2023/10/20 09:16:07;;;;;;;0.10;0.10;;;17.90;99.90;;;;;;5011479;28;20049;-70
2023/10/20 09:18:44;;;;;;;0.00;0.00;;;17.90;99.90;;;;;;5009438;28;20030;-70
2023/10/20 09:21:13;;;;;;;0.55;0.55;;;17.90;99.90;;;;;;5006470;28;20018;-71
2023/10/20 09:23:39;;;;;;;0.20;0.10;;;17.80;99.90;;;;;;5012446;28;20275;-71
2023/10/20 09:26:06;;;;;;;0.00;0.00;;;17.80;99.90;;;;;;5012994;28;20056;-71
2023/10/20 09:28:32;;;;;;;1.02;0.50;;;18.00;99.90;;;;;;4995925;28;20076;-71
2023/10/20 09:30:59;;;;;;;0.00;0.00;;;17.90;99.90;;;;;;5012670;28;20029;-71
2023/10/20 09:33:26;;;;;;;0.10;0.10;;;18.00;99.90;;;;;;5012401;28;20374;-71
2023/10/20 09:35:55;;;;;;;0.57;0.57;;;18.00;99.90;;;;;;5010161;28;20057;-71
2023/10/20 09:38:28;;;;;;;0.30;0.30;;;17.90;99.90;;;;;;5012378;28;20364;-71
2023/10/20 09:41:11;;;;;;;0.00;0.00;;;18.00;99.90;;;;;;5010928;28;20109;-72
2023/10/20 09:43:48;;;;;;;0.00;0.00;;;17.90;99.90;;;;;;5012407;28;20034;-71
2023/10/20 09:46:39;;;;;;;0.05;0.05;;;17.90;99.90;;;;;;5004385;28;20026;-71
2023/10/20 09:49:19;;;;;;;0.00;0.00;;;17.90;99.90;;;;;;5001972;28;20471;-72
2023/10/20 09:51:48;;;;;;;0.00;0.00;;;18.10;99.90;;;;;;5005646;28;20040;-71
2023/10/20 09:54:16;;;;;;;0.00;0.00;;;18.10;99.90;;;;;;5004696;28;20486;-71
2023/10/20 09:56:44;;;;;;;0.00;0.00;;;18.10;99.90;;;;;;5007737;28;20533;-73
2023/10/20 09:59:16;;;;;;;0.20;0.20;;;18.20;99.90;;;;;;5007134;28;20033;-70
2023/10/20 10:01:43;;;;;;;0.00;0.00;;;18.20;99.90;;;;;;5007840;28;20033;-71
2023/10/20 10:04:10;;;;;;;0.32;0.32;;;18.30;99.90;;;;;;5011138;28;20036;-70
2023/10/20 10:06:37;;;;;;;0.10;0.10;;;18.10;99.90;;;;;;5011666;28;20034;-71
2023/10/20 10:09:06;;;;;;;0.00;0.00;;;18.10;99.90;;;;;;5011861;28;20052;-70
2023/10/20 10:11:45;;;;;;;0.00;0.00;;;18.10;99.90;;;;;;5019264;28;20033;-71
2023/10/20 10:14:19;;;;;;;0.00;0.00;;;18.10;99.90;;;;;;5032583;28;20351;-72
2023/10/20 10:16:56;;;;;;;0.80;0.63;;;18.10;99.90;;;;;;5032375;28;20030;-71
2023/10/20 10:19:26;;;;;;;0.10;0.10;;;18.10;99.90;;;;;;5032410;28;20029;-71
2023/10/20 10:21:59;;;;;;;8.07;1.40;;;18.10;99.90;;;;;;5032426;28;20478;-70
2023/10/20 10:24:26;;;;;;;0.40;0.40;;;17.90;99.90;;;;;;5032469;28;20034;-70
2023/10/20 10:27:06;;;;;;;0.52;0.52;;;17.80;99.90;;;;;;5032617;28;20032;-70
2023/10/20 10:30:05;;;;;;;0.00;0.00;;;17.80;99.90;;;;;;5032121;28;20120;-70
2023/10/20 10:32:32;;;;;;;0.57;0.55;;;17.90;99.90;;;;;;5032215;28;20037;-70
2023/10/20 10:34:59;;;;;;;0.68;0.65;;;17.80;99.90;;;;;;5032093;28;20096;-70
2023/10/20 10:37:37;;;;;;;1.13;1.02;;;17.90;99.90;;;;;;5029694;28;20065;-70
2023/10/20 10:40:13;;;;;;;0.68;0.68;;;17.80;99.90;;;;;;5022033;28;20018;-71
2023/10/20 10:42:43;;;;;;;0.00;0.00;;;17.70;99.90;;;;;;5012711;28;20045;-69
2023/10/20 10:45:23;;;;;;;0.93;0.73;;;17.70;99.90;;;;;;5012043;28;20042;-70
2023/10/20 10:48:08;;;;;;;0.10;0.10;;;17.70;99.90;;;;;;5012470;28;20117;-69
2023/10/20 10:50:42;;;;;;;0.28;0.22;;;18.00;99.90;;;;;;5012381;28;20030;-68
2023/10/20 10:53:13;;;;;;;0.80;0.47;;;17.80;99.90;;;;;;5011237;28;20037;-68
2023/10/20 10:55:40;;;;;;;0.20;0.20;;;17.90;99.90;;;;;;5012324;28;20026;-69
2023/10/20 10:58:10;;;;;;;0.03;0.03;;;18.00;99.90;;;;;;5007676;28;20760;-69
2023/10/20 11:00:37;;;;;;;0.38;0.38;;;17.90;99.90;;;;;;5007883;28;20011;-68
2023/10/20 11:03:03;;;;;;;0.00;0.00;;;17.60;99.90;;;;;;5006067;28;20505;-68
2023/10/20 11:05:29;;;;;;;0.20;0.20;;;17.70;99.90;;;;;;5025183;28;20041;-69
2023/10/20 11:08:07;;;;;;;0.20;0.20;;;17.70;99.90;;;;;;5014782;28;20022;-68
2023/10/20 11:10:36;;;;;;;0.55;0.47;;;17.60;99.90;;;;;;5015820;28;20236;-68
2023/10/20 11:13:13;;;;;;;0.10;0.10;;;17.40;99.90;;;;;;5035347;28;20064;-71
2023/10/20 11:15:40;;;;;;;0.20;0.20;;;17.50;99.90;;;;;;5032993;28;20037;-72
2023/10/20 11:18:07;;;;;;;0.10;0.10;;;17.40;99.90;;;;;;5017897;28;20014;-72
2023/10/20 11:20:37;;;;;;;0.00;0.00;;;17.30;99.90;;;;;;5035693;28;20025;-73
2023/10/20 11:23:07;;;;;;;0.75;0.65;;;17.20;99.90;;;;;;5035604;28;20017;-71
2023/10/20 11:25:34;;;;;;;0.00;0.00;;;17.10;99.90;;;;;;5017863;28;20489;-71
2023/10/20 11:28:02;;;;;;;0.10;0.10;;;17.10;99.90;;;;;;5035726;28;20359;-72
2023/10/20 11:30:34;;;;;;;0.05;0.05;;;17.20;99.90;;;;;;5034032;28;20038;-72
2023/10/20 11:33:00;;;;;;;0.32;0.08;;;17.10;99.90;;;;;;5014683;28;20026;-72
2023/10/20 11:35:26;;;;;;;0.00;0.00;;;16.90;99.90;;;;;;5015517;28;20022;-72
2023/10/20 11:37:55;;;;;;;0.52;0.20;;;16.70;99.90;;;;;;5015108;28;20047;-73
2023/10/20 11:40:21;;;;;;;0.10;0.10;;;16.80;99.90;;;;;;5015955;28;20443;-73
2023/10/20 11:42:48;;;;;;;0.00;0.00;;;16.70;99.90;;;;;;5015427;28;20034;-72
2023/10/20 11:45:14;;;;;;;0.08;0.03;;;16.70;99.90;;;;;;5015402;28;20475;-72
2023/10/20 11:47:40;;;;;;;0.00;0.00;;;16.80;99.90;;;;;;5015101;28;20030;-72
2023/10/20 11:50:08;;;;;;;0.10;0.10;;;17.00;99.90;;;;;;5015413;28;20661;-72
2023/10/20 11:52:38;;;;;;;0.15;0.15;;;17.10;99.90;;;;;;5015387;28;20096;-73
2023/10/20 11:55:05;;;;;;;0.00;0.00;;;16.90;99.90;;;;;;5015104;28;20022;-72
2023/10/20 11:57:32;;;;;;;0.20;0.20;;;16.90;99.90;;;;;;5015024;28;20105;-74
2023/10/20 11:59:58;;;;;;;0.00;0.00;;;16.90;99.90;;;;;;5015061;28;20608;-74
2023/10/20 12:02:24;;;;;;;0.50;0.47;;;16.70;99.90;;;;;;5013930;28;20471;-73
2023/10/20 12:04:50;;;;;;;0.00;0.00;;;16.80;99.90;;;;;;5013811;28;20040;-73
2023/10/20 12:07:16;;;;;;;0.10;0.10;;;16.80;99.90;;;;;;5014877;28;20025;-74
2023/10/20 12:09:42;;;;;;;0.20;0.10;;;16.80;99.90;;;;;;5013953;28;20117;-73
2023/10/20 12:12:08;;;;;;;0.35;0.35;;;16.70;99.90;;;;;;5025254;28;20038;-73
2023/10/20 12:14:34;;;;;;;0.00;0.00;;;16.60;99.90;;;;;;5032729;28;20167;-73
2023/10/20 12:16:59;;;;;;;0.25;0.25;;;16.50;99.90;;;;;;5034685;28;20480;-73
2023/10/20 12:19:25;;;;;;;0.20;0.20;;;16.50;99.90;;;;;;5034742;28;20547;-73
2023/10/20 12:21:51;;;;;;;0.00;0.00;;;16.40;99.90;;;;;;5033090;28;20168;-72
2023/10/20 12:24:17;;;;;;;0.30;0.30;;;16.60;99.90;;;;;;5033208;28;20033;-74
2023/10/20 12:26:42;;;;;;;0.15;0.15;;;16.70;99.90;;;;;;5034342;28;20026;-75
2023/10/20 12:29:08;;;;;;;1.02;0.98;;;16.50;99.90;;;;;;5034702;28;20033;-74
2023/10/20 12:31:34;;;;;;;0.05;0.05;;;16.50;99.90;;;;;;5034196;28;20103;-72
2023/10/20 12:34:00;;;;;;;0.22;0.22;;;16.60;99.90;;;;;;5034267;28;20067;-73
2023/10/20 12:36:31;;;;;;;0.00;0.00;;;16.60;99.90;;;;;;5032748;28;20033;-72
2023/10/20 12:38:57;;;;;;;0.93;0.70;;;16.70;99.90;;;;;;5034257;28;20041;-72
2023/10/20 12:41:23;;;;;;;1.13;1.02;;;16.70;99.90;;;;;;5033921;28;20025;-73
2023/10/20 12:43:48;;;;;;;0.28;0.28;;;16.80;99.90;;;;;;5032701;28;20400;-72
2023/10/20 12:46:14;;;;;;;0.70;0.38;;;16.80;99.90;;;;;;5034168;28;20536;-72
2023/10/20 12:48:41;;;;;;;1.10;0.43;;;16.80;99.90;;;;;;5025134;28;20064;-72
2023/10/20 12:51:11;;;;;;;8.70;0.65;;;16.90;99.90;;;;;;5033999;28;20033;-72
2023/10/20 12:53:38;;;;;;;0.85;0.65;;;16.70;99.90;;;;;;5034091;28;20474;-73
2023/10/20 12:56:05;;;;;;;1.08;0.68;;;16.70;99.90;;;;;;5033800;28;20037;-72
2023/10/20 12:58:31;;;;;;;0.00;0.00;;;16.60;99.90;;;;;;5033596;28;20030;-72
2023/10/20 13:00:57;;;;;;;0.50;0.50;;;16.60;99.90;;;;;;5033877;28;20033;-72
2023/10/20 13:03:24;;;;;;;1.23;1.13;;;16.70;99.90;;;;;;5032394;28;20481;-72
2023/10/20 13:05:49;;;;;;;0.30;0.30;;;16.60;99.90;;;;;;5032723;28;20112;-72
2023/10/20 13:08:15;;;;;;;0.20;0.20;;;16.50;99.90;;;;;;5033780;28;20485;-72
2023/10/20 13:10:41;;;;;;;6.93;0.70;;;16.70;99.90;;;;;;5033592;28;20473;-72
2023/10/20 13:13:07;;;;;;;1.95;0.30;;;16.50;99.90;;;;;;5033386;28;20017;-72
2023/10/20 13:15:36;;;;;;;1.45;1.15;;;16.50;99.90;;;;;;5033803;28;20385;-72
2023/10/20 13:18:02;;;;;;;0.80;0.60;;;16.40;99.90;;;;;;5032177;28;20143;-72
2023/10/20 13:20:28;;;;;;;0.57;0.57;;;16.40;99.90;;;;;;5033718;28;20026;-72